Aviation Digital Data Service (ADDS)

Output produced by METARs form (0424 UTC 20 December 2014)
found at http://www.aviationweather.gov/adds/metars/
 
KDEN 200251Z 2003/2106 19011KT P6SM FEW120 BKN220 
     FM202000 16007KT P6SM SCT110 BKN170 
     FM210200 19008KT P6SM SCT110 BKN170